sensor_id;sensor_type;location;lat;lon;timestamp;temperature;humidity
20740;DHT22;10530;49.968;19.844;2023-02-18T00:00:41;10.50;99.90
20740;DHT22;10530;49.968;19.844;2023-02-18T00:05:44;10.60;99.90
20740;DHT22;10530;49.968;19.844;2023-02-18T00:10:47;10.80;99.90
20740;DHT22;10530;49.968;19.844;2023-02-18T00:15:50;11.00;99.90
20740;DHT22;10530;49.968;19.844;2023-02-18T00:20:53;11.10;99.90
20740;DHT22;10530;49.968;19.844;2023-02-18T00:31:08;11.20;99.90
20740;DHT22;10530;49.968;19.844;2023-02-18T00:36:15;11.10;99.90
20740;DHT22;10530;49.968;19.844;2023-02-18T00:41:19;11.10;99.90
20740;DHT22;10530;49.968;19.844;2023-02-18T00:46:23;11.20;99.90
20740;DHT22;10530;49.968;19.844;2023-02-18T00:51:27;11.20;99.90
20740;DHT22;10530;49.968;19.844;2023-02-18T00:56:30;11.30;99.90
20740;DHT22;10530;49.968;19.844;2023-02-18T01:01:33;11.40;99.90
20740;DHT22;10530;49.968;19.844;2023-02-18T01:06:36;11.30;99.90
20740;DHT22;10530;49.968;19.844;2023-02-18T01:11:39;11.40;99.90
20740;DHT22;10530;49.968;19.844;2023-02-18T01:16:42;11.50;99.90
20740;DHT22;10530;49.968;19.844;2023-02-18T01:21:45;11.30;99.90
20740;DHT22;10530;49.968;19.844;2023-02-18T01:26:49;11.20;99.90
20740;DHT22;10530;49.968;19.844;2023-02-18T05:35:14;7.70;99.90
20740;DHT22;10530;49.968;19.844;2023-02-18T05:40:17;7.40;99.90
20740;DHT22;10530;49.968;19.844;2023-02-18T05:45:20;7.80;99.90
20740;DHT22;10530;49.968;19.844;2023-02-18T05:50:23;7.90;99.90
20740;DHT22;10530;49.968;19.844;2023-02-18T05:55:26;8.00;98.00
20740;DHT22;10530;49.968;19.844;2023-02-18T06:00:29;7.90;94.00
20740;DHT22;10530;49.968;19.844;2023-02-18T06:05:33;7.90;93.90
20740;DHT22;10530;49.968;19.844;2023-02-18T06:10:35;7.80;95.10
20740;DHT22;10530;49.968;19.844;2023-02-18T06:15:38;7.60;97.60
20740;DHT22;10530;49.968;19.844;2023-02-18T06:20:41;7.60;98.70
20740;DHT22;10530;49.968;19.844;2023-02-18T06:25:44;7.70;99.60
20740;DHT22;10530;49.968;19.844;2023-02-18T06:30:49;7.50;99.90
20740;DHT22;10530;49.968;19.844;2023-02-18T06:35:58;7.60;99.90
20740;DHT22;10530;49.968;19.844;2023-02-18T06:41:01;8.10;96.80
20740;DHT22;10530;49.968;19.844;2023-02-18T06:46:04;8.20;94.60
20740;DHT22;10530;49.968;19.844;2023-02-18T06:51:08;8.30;91.60
20740;DHT22;10530;49.968;19.844;2023-02-18T06:56:11;8.40;90.90
20740;DHT22;10530;49.968;19.844;2023-02-18T07:01:14;8.40;92.40
20740;DHT22;10530;49.968;19.844;2023-02-18T07:06:17;8.50;90.40
20740;DHT22;10530;49.968;19.844;2023-02-18T07:11:20;8.60;89.80
20740;DHT22;10530;49.968;19.844;2023-02-18T07:16:23;8.70;86.50
20740;DHT22;10530;49.968;19.844;2023-02-18T07:21:26;8.80;85.80
20740;DHT22;10530;49.968;19.844;2023-02-18T07:26:29;8.90;86.50
20740;DHT22;10530;49.968;19.844;2023-02-18T07:31:32;9.10;85.90
20740;DHT22;10530;49.968;19.844;2023-02-18T07:36:35;9.20;83.30
20740;DHT22;10530;49.968;19.844;2023-02-18T07:41:38;9.20;79.40
20740;DHT22;10530;49.968;19.844;2023-02-18T07:46:49;9.10;78.80
20740;DHT22;10530;49.968;19.844;2023-02-18T07:51:52;9.10;77.80
20740;DHT22;10530;49.968;19.844;2023-02-18T07:56:54;9.10;70.60
20740;DHT22;10530;49.968;19.844;2023-02-18T08:01:57;9.10;68.70
20740;DHT22;10530;49.968;19.844;2023-02-18T08:07:00;9.10;64.40
20740;DHT22;10530;49.968;19.844;2023-02-18T08:12:03;9.10;68.90
20740;DHT22;10530;49.968;19.844;2023-02-18T08:17:06;9.10;68.70
20740;DHT22;10530;49.968;19.844;2023-02-18T08:22:08;9.10;68.30
20740;DHT22;10530;49.968;19.844;2023-02-18T08:27:11;9.20;66.80
20740;DHT22;10530;49.968;19.844;2023-02-18T08:32:16;9.30;63.30
20740;DHT22;10530;49.968;19.844;2023-02-18T08:37:19;9.30;58.10
20740;DHT22;10530;49.968;19.844;2023-02-18T08:42:22;9.30;58.50
20740;DHT22;10530;49.968;19.844;2023-02-18T08:47:24;9.30;56.80
20740;DHT22;10530;49.968;19.844;2023-02-18T08:52:47;9.40;59.60
20740;DHT22;10530;49.968;19.844;2023-02-18T08:57:50;9.40;60.00
20740;DHT22;10530;49.968;19.844;2023-02-18T09:02:53;9.50;59.20
20740;DHT22;10530;49.968;19.844;2023-02-18T09:07:55;9.60;59.30
20740;DHT22;10530;49.968;19.844;2023-02-18T09:12:58;9.60;56.30
20740;DHT22;10530;49.968;19.844;2023-02-18T09:18:01;9.70;59.30
20740;DHT22;10530;49.968;19.844;2023-02-18T09:23:04;9.70;60.70
20740;DHT22;10530;49.968;19.844;2023-02-18T09:28:07;9.60;60.30
20740;DHT22;10530;49.968;19.844;2023-02-18T09:33:10;9.60;60.60
20740;DHT22;10530;49.968;19.844;2023-02-18T09:38:15;9.70;61.60
20740;DHT22;10530;49.968;19.844;2023-02-18T09:47:12;9.90;62.70
20740;DHT22;10530;49.968;19.844;2023-02-18T09:52:27;9.60;66.30
20740;DHT22;10530;49.968;19.844;2023-02-18T09:57:40;9.60;65.30
20740;DHT22;10530;49.968;19.844;2023-02-18T10:08:34;9.80;66.40
20740;DHT22;10530;49.968;19.844;2023-02-18T10:13:39;9.90;66.40
20740;DHT22;10530;49.968;19.844;2023-02-18T10:18:45;10.10;63.10
20740;DHT22;10530;49.968;19.844;2023-02-18T10:24:00;10.20;60.40
20740;DHT22;10530;49.968;19.844;2023-02-18T10:29:13;10.30;62.20
20740;DHT22;10530;49.968;19.844;2023-02-18T10:50:29;9.80;59.10
20740;DHT22;10530;49.968;19.844;2023-02-18T10:55:39;9.80;62.30
20740;DHT22;10530;49.968;19.844;2023-02-18T11:00:43;9.70;65.20
20740;DHT22;10530;49.968;19.844;2023-02-18T11:05:50;9.70;66.40
20740;DHT22;10530;49.968;19.844;2023-02-18T11:10:54;9.60;68.80
20740;DHT22;10530;49.968;19.844;2023-02-18T11:16:05;9.70;69.50
20740;DHT22;10530;49.968;19.844;2023-02-18T11:21:30;9.60;70.30
20740;DHT22;10530;49.968;19.844;2023-02-18T11:26:35;9.70;74.10
20740;DHT22;10530;49.968;19.844;2023-02-18T11:31:43;9.60;77.70
20740;DHT22;10530;49.968;19.844;2023-02-18T11:36:48;9.10;89.20
20740;DHT22;10530;49.968;19.844;2023-02-18T11:52:26;8.10;99.90
20740;DHT22;10530;49.968;19.844;2023-02-18T11:57:30;8.10;99.90
20740;DHT22;10530;49.968;19.844;2023-02-18T12:02:36;8.00;99.90
20740;DHT22;10530;49.968;19.844;2023-02-18T12:13:22;7.90;99.90
20740;DHT22;10530;49.968;19.844;2023-02-18T12:18:43;7.90;99.90
20740;DHT22;10530;49.968;19.844;2023-02-18T12:29:26;8.20;99.90
20740;DHT22;10530;49.968;19.844;2023-02-18T12:34:48;8.20;99.90
20740;DHT22;10530;49.968;19.844;2023-02-18T12:40:28;8.10;99.90
20740;DHT22;10530;49.968;19.844;2023-02-18T12:51:01;8.00;99.90
20740;DHT22;10530;49.968;19.844;2023-02-18T12:56:24;7.90;99.90
20740;DHT22;10530;49.968;19.844;2023-02-18T13:01:40;7.80;99.90
20740;DHT22;10530;49.968;19.844;2023-02-18T13:17:35;7.50;99.90
20740;DHT22;10530;49.968;19.844;2023-02-18T13:22:39;7.50;99.90
20740;DHT22;10530;49.968;19.844;2023-02-18T13:33:18;7.30;99.90
20740;DHT22;10530;49.968;19.844;2023-02-18T13:38:44;7.40;99.90
20740;DHT22;10530;49.968;19.844;2023-02-18T13:43:50;7.40;99.90
20740;DHT22;10530;49.968;19.844;2023-02-18T13:49:10;7.40;99.90
20740;DHT22;10530;49.968;19.844;2023-02-18T13:54:40;7.40;99.90
20740;DHT22;10530;49.968;19.844;2023-02-18T13:59:48;7.40;99.90
20740;DHT22;10530;49.968;19.844;2023-02-18T14:04:57;7.40;99.90
20740;DHT22;10530;49.968;19.844;2023-02-18T14:30:39;7.20;99.90
20740;DHT22;10530;49.968;19.844;2023-02-18T14:36:03;7.10;99.90
20740;DHT22;10530;49.968;19.844;2023-02-18T14:51:35;7.10;99.90
20740;DHT22;10530;49.968;19.844;2023-02-18T15:02:23;7.20;99.90
20740;DHT22;10530;49.968;19.844;2023-02-18T15:07:29;7.20;99.90
20740;DHT22;10530;49.968;19.844;2023-02-18T15:12:32;7.00;99.90
20740;DHT22;10530;49.968;19.844;2023-02-18T15:17:35;6.80;99.90
20740;DHT22;10530;49.968;19.844;2023-02-18T15:22:39;6.70;99.90
20740;DHT22;10530;49.968;19.844;2023-02-18T15:27:43;6.60;99.90
20740;DHT22;10530;49.968;19.844;2023-02-18T15:32:52;6.60;99.90
20740;DHT22;10530;49.968;19.844;2023-02-18T15:37:57;6.50;99.90
20740;DHT22;10530;49.968;19.844;2023-02-18T15:43:01;6.50;99.90
20740;DHT22;10530;49.968;19.844;2023-02-18T15:48:06;6.50;99.90
20740;DHT22;10530;49.968;19.844;2023-02-18T15:53:14;6.50;99.90
20740;DHT22;10530;49.968;19.844;2023-02-18T15:58:30;6.40;99.90
20740;DHT22;10530;49.968;19.844;2023-02-18T16:09:17;6.40;99.90
20740;DHT22;10530;49.968;19.844;2023-02-18T16:14:31;6.40;99.90
20740;DHT22;10530;49.968;19.844;2023-02-18T16:25:16;7.30;99.90
20740;DHT22;10530;49.968;19.844;2023-02-18T16:30:25;8.00;99.90
20740;DHT22;10530;49.968;19.844;2023-02-18T16:35:29;8.30;99.90
20740;DHT22;10530;49.968;19.844;2023-02-18T16:40:52;8.60;99.90
20740;DHT22;10530;49.968;19.844;2023-02-18T16:45:57;8.80;99.90
20740;DHT22;10530;49.968;19.844;2023-02-18T16:51:03;8.90;99.90
20740;DHT22;10530;49.968;19.844;2023-02-18T16:56:22;9.30;99.90
20740;DHT22;10530;49.968;19.844;2023-02-18T17:01:33;9.70;99.90
20740;DHT22;10530;49.968;19.844;2023-02-18T17:06:43;10.20;99.90
20740;DHT22;10530;49.968;19.844;2023-02-18T17:11:51;10.30;99.90
20740;DHT22;10530;49.968;19.844;2023-02-18T17:16:55;10.50;99.90
20740;DHT22;10530;49.968;19.844;2023-02-18T17:21:58;10.60;99.90
20740;DHT22;10530;49.968;19.844;2023-02-18T17:27:01;10.60;99.90
20740;DHT22;10530;49.968;19.844;2023-02-18T17:32:05;10.70;99.90
20740;DHT22;10530;49.968;19.844;2023-02-18T17:37:11;10.70;99.90
20740;DHT22;10530;49.968;19.844;2023-02-18T17:42:15;10.80;99.90
20740;DHT22;10530;49.968;19.844;2023-02-18T17:47:18;10.70;99.90
20740;DHT22;10530;49.968;19.844;2023-02-18T17:52:28;10.50;99.90
20740;DHT22;10530;49.968;19.844;2023-02-18T17:57:32;10.50;99.90
20740;DHT22;10530;49.968;19.844;2023-02-18T18:02:35;10.50;99.90
20740;DHT22;10530;49.968;19.844;2023-02-18T18:07:38;10.50;99.90
20740;DHT22;10530;49.968;19.844;2023-02-18T18:12:41;10.60;99.90
20740;DHT22;10530;49.968;19.844;2023-02-18T18:17:44;10.60;99.90
20740;DHT22;10530;49.968;19.844;2023-02-18T18:22:47;10.50;99.90
20740;DHT22;10530;49.968;19.844;2023-02-18T18:27:51;10.50;99.90
20740;DHT22;10530;49.968;19.844;2023-02-18T18:32:54;10.60;99.90
20740;DHT22;10530;49.968;19.844;2023-02-18T18:37:58;10.60;99.90
20740;DHT22;10530;49.968;19.844;2023-02-18T18:43:02;10.50;99.90
20740;DHT22;10530;49.968;19.844;2023-02-18T18:48:05;10.10;99.90
20740;DHT22;10530;49.968;19.844;2023-02-18T18:53:22;9.90;99.90
20740;DHT22;10530;49.968;19.844;2023-02-18T18:58:26;9.80;99.90
20740;DHT22;10530;49.968;19.844;2023-02-18T19:03:29;9.60;99.90
20740;DHT22;10530;49.968;19.844;2023-02-18T19:08:33;9.50;99.90
20740;DHT22;10530;49.968;19.844;2023-02-18T19:13:35;9.50;99.90
20740;DHT22;10530;49.968;19.844;2023-02-18T19:18:38;9.90;99.90
20740;DHT22;10530;49.968;19.844;2023-02-18T19:23:41;10.60;99.90
20740;DHT22;10530;49.968;19.844;2023-02-18T19:28:45;9.90;99.90
20740;DHT22;10530;49.968;19.844;2023-02-18T19:33:48;9.80;99.90
20740;DHT22;10530;49.968;19.844;2023-02-18T19:38:52;9.90;99.90
20740;DHT22;10530;49.968;19.844;2023-02-18T19:43:55;9.90;99.90
20740;DHT22;10530;49.968;19.844;2023-02-18T19:48:58;9.80;99.90
20740;DHT22;10530;49.968;19.844;2023-02-18T19:54:01;10.00;99.90
20740;DHT22;10530;49.968;19.844;2023-02-18T19:59:04;9.90;99.90
20740;DHT22;10530;49.968;19.844;2023-02-18T20:04:07;9.90;99.90
20740;DHT22;10530;49.968;19.844;2023-02-18T20:09:10;9.90;99.90
20740;DHT22;10530;49.968;19.844;2023-02-18T20:14:13;9.90;99.90
20740;DHT22;10530;49.968;19.844;2023-02-18T20:19:16;9.80;99.90
20740;DHT22;10530;49.968;19.844;2023-02-18T20:24:19;9.70;99.90
20740;DHT22;10530;49.968;19.844;2023-02-18T20:29:22;9.70;99.90
20740;DHT22;10530;49.968;19.844;2023-02-18T20:34:25;9.80;99.90
20740;DHT22;10530;49.968;19.844;2023-02-18T20:39:28;9.80;99.90
20740;DHT22;10530;49.968;19.844;2023-02-18T20:44:31;9.80;99.90
20740;DHT22;10530;49.968;19.844;2023-02-18T20:49:34;9.90;99.90
20740;DHT22;10530;49.968;19.844;2023-02-18T20:54:37;9.80;99.90
20740;DHT22;10530;49.968;19.844;2023-02-18T20:59:41;10.00;99.90
20740;DHT22;10530;49.968;19.844;2023-02-18T21:04:44;10.00;99.90
20740;DHT22;10530;49.968;19.844;2023-02-18T21:09:47;10.00;99.90
20740;DHT22;10530;49.968;19.844;2023-02-18T21:14:49;9.90;99.90
20740;DHT22;10530;49.968;19.844;2023-02-18T21:19:52;9.80;99.90
20740;DHT22;10530;49.968;19.844;2023-02-18T21:24:55;9.60;99.90
20740;DHT22;10530;49.968;19.844;2023-02-18T21:29:58;9.10;99.90
20740;DHT22;10530;49.968;19.844;2023-02-18T21:35:01;8.70;99.90
20740;DHT22;10530;49.968;19.844;2023-02-18T21:40:05;8.40;99.90
20740;DHT22;10530;49.968;19.844;2023-02-18T21:45:08;8.30;99.90
20740;DHT22;10530;49.968;19.844;2023-02-18T21:50:12;8.30;99.90
20740;DHT22;10530;49.968;19.844;2023-02-18T21:55:17;8.30;99.90
20740;DHT22;10530;49.968;19.844;2023-02-18T22:00:20;8.20;99.90
20740;DHT22;10530;49.968;19.844;2023-02-18T22:05:24;8.20;99.90
20740;DHT22;10530;49.968;19.844;2023-02-18T22:10:27;8.10;99.90
20740;DHT22;10530;49.968;19.844;2023-02-18T22:15:30;8.10;99.90
20740;DHT22;10530;49.968;19.844;2023-02-18T22:20:33;8.00;99.90
20740;DHT22;10530;49.968;19.844;2023-02-18T22:25:36;8.00;99.90
20740;DHT22;10530;49.968;19.844;2023-02-18T22:30:38;7.90;99.90
20740;DHT22;10530;49.968;19.844;2023-02-18T22:35:41;7.90;99.90
20740;DHT22;10530;49.968;19.844;2023-02-18T22:40:44;7.80;99.90
20740;DHT22;10530;49.968;19.844;2023-02-18T22:45:49;7.80;99.90
20740;DHT22;10530;49.968;19.844;2023-02-18T22:50:52;7.90;99.90
20740;DHT22;10530;49.968;19.844;2023-02-18T22:56:08;7.80;99.90
20740;DHT22;10530;49.968;19.844;2023-02-18T23:06:30;7.70;99.90
20740;DHT22;10530;49.968;19.844;2023-02-18T23:11:33;7.70;99.90
20740;DHT22;10530;49.968;19.844;2023-02-18T23:16:37;7.70;99.90
20740;DHT22;10530;49.968;19.844;2023-02-18T23:21:58;7.60;99.90
20740;DHT22;10530;49.968;19.844;2023-02-18T23:27:02;7.50;99.90
20740;DHT22;10530;49.968;19.844;2023-02-18T23:32:06;7.50;99.90
20740;DHT22;10530;49.968;19.844;2023-02-18T23:37:09;7.50;99.90
20740;DHT22;10530;49.968;19.844;2023-02-18T23:42:12;7.40;99.90
20740;DHT22;10530;49.968;19.844;2023-02-18T23:47:15;7.40;99.90
20740;DHT22;10530;49.968;19.844;2023-02-18T23:52:18;7.40;99.90
20740;DHT22;10530;49.968;19.844;2023-02-18T23:57:21;7.40;99.90
